Weather reports worldwide

Advertisment
Adra, Spain (8486): temperature & dewpoint: 09.10.2019 20:00:00 - 15.10.2019 20:00:00 (CEST)Adra, Spain (8486): wind speed & gusts: 09.10.2019 20:00:00 - 15.10.2019 20:00:00 (CEST)Adra, Spain (8486): wind direction: 09.10.2019 20:00:00 - 15.10.2019 20:00:00 (CEST)Adra, Spain (8486): reduced air pressure: 09.10.2019 20:00:00 - 15.10.2019 20:00:00 (CEST)Adra, Spain (8486): precipitation: 09.10.2019 20:00:00 - 15.10.2019 20:00:00 (CEST)
Date & Time tt [°C] td [°C] ff [km/h] ff [kn] fx [km/h] fx [kn] dd ppp [hPa] rr [mm]
15.10.2019 20:00:00 - - - - - - - - -
15.10.2019 19:00:00 21,1 9,0 4 2 8 4 SE 1019,6 0,0
15.10.2019 18:00:00 20,5 10,0 5 3 10 5 SSW 1019,4 0,0
15.10.2019 17:00:00 21,3 10,4 5 3 11 6 SW 1018,9 0,0
15.10.2019 16:00:00 21,4 10,3 6 3 14 8 SE 1018,4 0,0
15.10.2019 15:00:00 21,6 10,4 8 4 18 10 SE 1019,0 0,0
15.10.2019 14:00:00 21,3 9,2 9 5 23 13 E 1020,3 -
15.10.2019 13:00:00 21,1 9,7 12 7 28 15 ESE 1020,3 0,0
15.10.2019 12:00:00 21,4 9,3 13 7 29 15 E 1020,0 0,0
15.10.2019 11:00:00 20,4 10,8 10 6 16 9 SE 1020,0 0,0
15.10.2019 10:00:00 20,2 9,4 6 3 20 11 NNE 1019,2 0,0
15.10.2019 09:00:00 18,8 9,3 9 5 19 11 NNE 1018,6 0,0
15.10.2019 08:00:00 17,7 8,5 7 4 18 10 NNE 1018,8 -
15.10.2019 07:00:00 18,2 8,8 5 3 16 9 NNE 1018,2 0,0
15.10.2019 06:00:00 19,5 10,5 3 2 26 14 NW 1018,0 0,0
15.10.2019 05:00:00 20,1 10,5 6 3 22 12 N 1017,6 0,0
15.10.2019 04:00:00 19,4 11,2 4 2 19 10 N 1017,4 0,0
15.10.2019 03:00:00 20,0 13,5 12 6 40 22 W 1017,4 0,0
15.10.2019 02:00:00 20,4 13,4 24 13 35 19 W 1017,1 -
15.10.2019 01:00:00 20,6 13,8 16 8 37 20 W 1017,2 0,0
15.10.2019 00:00:00 21,1 12,5 16 8 33 18 W 1017,1 0,0
14.10.2019 23:00:00 20,5 15,3 18 10 34 18 W 1016,7 0,0
14.10.2019 22:00:00 21,3 16,0 25 14 50 27 WSW 1016,2 0,0
14.10.2019 21:00:00 21,4 16,8 26 14 52 28 W 1015,7 0,0
14.10.2019 20:00:00 21,4 17,8 29 16 48 26 WSW 1015,3 -
14.10.2019 19:00:00 21,2 18,4 32 17 58 32 WSW 1014,6 0,0
14.10.2019 18:00:00 21,3 18,1 35 19 61 33 WSW 1014,4 0,0
14.10.2019 17:00:00 21,8 17,6 32 18 58 31 WSW 1014,0 0,0
14.10.2019 16:00:00 22,1 17,7 34 18 55 30 W 1013,5 0,0
14.10.2019 15:00:00 22,6 17,9 28 15 50 27 W 1013,3 0,0
14.10.2019 14:00:00 22,4 18,8 27 14 51 28 WSW 1014,7 -
14.10.2019 13:00:00 22,1 18,7 28 15 48 26 WSW 1014,9 0,0
14.10.2019 12:00:00 22,2 19,3 26 14 42 23 WSW 1014,7 0,0
14.10.2019 11:00:00 22,5 19,1 17 9 34 19 WSW 1015,0 0,0
14.10.2019 10:00:00 22,9 18,5 9 5 27 15 WSW 1014,6 0,0
14.10.2019 09:00:00 21,8 18,6 4 2 22 12 W 1014,1 0,0
14.10.2019 08:00:00 22,2 19,2 10 5 18 10 WSW 1014,0 -
14.10.2019 07:00:00 21,1 18,8 6 4 21 11 W 1013,7 0,0
14.10.2019 06:00:00 21,9 18,7 8 4 20 11 W 1013,2 0,0
14.10.2019 05:00:00 21,4 19,1 12 6 26 14 W 1013,3 0,0
14.10.2019 04:00:00 22,4 19,3 17 9 29 16 W 1013,5 0,0
14.10.2019 03:00:00 22,2 16,5 6 4 15 8 W 1013,6 0,0
14.10.2019 02:00:00 21,6 16,3 8 4 24 13 E 1014,1 -
14.10.2019 01:00:00 21,8 18,4 6 4 22 12 ENE 1014,6 0,0
14.10.2019 00:00:00 21,4 19,8 3 2 10 5 ESE 1016,1 0,0
13.10.2019 23:00:00 21,7 20,5 3 1 7 4 ENE 1015,9 0,0
13.10.2019 22:00:00 21,9 20,5 3 1 6 3 WSW 1015,9 0,0
13.10.2019 21:00:00 22,2 20,1 3 2 14 7 ESE 1014,8 0,0
13.10.2019 20:00:00 22,8 19,3 2 1 5 3 SE 1015,0 -
13.10.2019 19:00:00 24,4 19,3 1 1 7 4 SSW 1014,5 0,0
13.10.2019 18:00:00 24,6 19,6 2 1 11 6 S 1013,8 0,0
13.10.2019 17:00:00 23,8 19,3 7 4 10 6 SE 1014,3 0,0
13.10.2019 16:00:00 24,4 19,1 5 3 9 5 SSE 1014,7 0,0
13.10.2019 15:00:00 25,1 18,8 4 2 10 5 SSE 1015,0 0,0
13.10.2019 14:00:00 25,1 19,7 5 3 9 5 SSE 1016,5 -
13.10.2019 13:00:00 24,8 19,0 4 2 9 5 SSE 1017,0 0,0
13.10.2019 12:00:00 25,9 18,8 2 1 6 3 SSE 1016,6 0,0
13.10.2019 11:00:00 24,6 17,3 4 2 7 4 SSE 1016,7 0,0
13.10.2019 10:00:00 23,9 18,3 1 0 3 2 ESE 1016,2 0,0
13.10.2019 09:00:00 20,3 16,1 2 1 11 6 ENE 1017,0 0,0
13.10.2019 08:00:00 19,7 18,0 1 1 4 2 NE 1016,9 -
13.10.2019 07:00:00 20,1 18,4 1 0 7 4 N 1016,6 0,0
13.10.2019 06:00:00 20,3 18,4 1 0 5 3 W 1016,1 0,0
13.10.2019 05:00:00 20,2 18,5 2 1 5 3 N 1016,5 0,0
13.10.2019 04:00:00 20,7 18,8 1 0 8 5 NNW 1016,9 0,0
13.10.2019 03:00:00 21,1 19,2 3 1 9 5 W 1017,0 0,0
13.10.2019 02:00:00 21,2 19,1 2 1 9 5 NNW 1017,0 -
13.10.2019 01:00:00 21,3 19,2 0 0 5 3 WNW 1017,5 0,0
13.10.2019 00:00:00 21,3 19,2 3 2 5 3 NNW 1017,5 0,0
12.10.2019 23:00:00 21,6 19,7 0 0 11 6 NW 1017,3 0,0
12.10.2019 22:00:00 22,1 20,5 7 4 10 6 W 1016,8 0,0
12.10.2019 21:00:00 22,3 20,9 7 4 13 7 W 1016,3 0,0
12.10.2019 20:00:00 22,4 20,7 8 4 14 8 W 1016,1 -
12.10.2019 19:00:00 22,9 20,1 10 5 16 9 WSW 1015,9 0,0
12.10.2019 18:00:00 24,6 20,1 7 4 13 7 W 1014,9 0,0
12.10.2019 17:00:00 26,2 20,1 2 1 12 6 S 1014,3 0,0
12.10.2019 16:00:00 25,6 20,6 1 1 16 9 SSE 1014,1 0,0
12.10.2019 15:00:00 24,5 19,3 8 4 19 10 SE 1015,2 0,0
12.10.2019 14:00:00 25,0 19,1 5 3 11 6 ESE 1016,3 -
12.10.2019 13:00:00 24,2 18,6 1 1 8 5 SW 1017,6 0,0
12.10.2019 12:00:00 23,8 18,5 3 2 7 4 SSE 1017,8 0,0
12.10.2019 11:00:00 23,0 17,9 4 2 8 5 ESE 1018,1 0,0
12.10.2019 10:00:00 22,7 17,9 0 0 3 2 E 1017,7 0,0
12.10.2019 09:00:00 21,3 16,7 2 1 19 10 NNE 1017,2 0,0
12.10.2019 08:00:00 20,7 17,3 3 2 9 5 NE 1017,1 -
12.10.2019 07:00:00 21,2 17,6 3 2 8 4 N 1017,7 0,0
12.10.2019 06:00:00 20,9 17,5 1 0 8 5 ENE 1017,3 0,0
12.10.2019 05:00:00 20,4 17,2 2 1 14 8 N 1017,6 0,0
12.10.2019 04:00:00 21,6 17,8 7 4 13 7 W 1017,7 0,0
12.10.2019 03:00:00 21,3 17,1 4 2 10 5 E 1017,7 0,0
12.10.2019 02:00:00 21,5 18,3 1 0 5 3 W 1018,7 -
12.10.2019 01:00:00 21,5 17,9 1 1 13 7 NE 1018,9 0,0
12.10.2019 00:00:00 21,4 18,6 7 4 13 7 W 1019,5 0,0
11.10.2019 23:00:00 21,6 18,4 2 1 13 7 E 1019,0 0,0
11.10.2019 22:00:00 21,7 18,9 5 3 9 5 W 1019,0 0,0
11.10.2019 21:00:00 21,7 18,7 0 0 10 6 SSW 1018,0 0,0
11.10.2019 20:00:00 22,2 19,2 8 4 16 9 W 1017,6 -
11.10.2019 19:00:00 22,3 18,9 7 4 - - WSW 1017,3 -
11.10.2019 18:00:00 - - - - - - - - -
11.10.2019 17:00:00 - - - - - - - - -
11.10.2019 16:00:00 - - - - - - - - -
11.10.2019 15:00:00 - - - - - - - - -
11.10.2019 14:00:00 - - - - - - - - -
11.10.2019 13:00:00 - - - - - - - - -
11.10.2019 12:00:00 - - - - - - - - -
11.10.2019 11:00:00 - - - - - - - - -
11.10.2019 10:00:00 - - - - - - - - -
11.10.2019 09:00:00 - - - - - - - - -
11.10.2019 08:00:00 - - - - - - - - -
11.10.2019 07:00:00 - - - - - - - - -
11.10.2019 06:00:00 - - - - - - - - -
11.10.2019 05:00:00 - - - - - - - - -
11.10.2019 04:00:00 - - - - - - - - -
11.10.2019 03:00:00 - - - - - - - - -
11.10.2019 02:00:00 - - - - - - - - -
11.10.2019 01:00:00 - - - - - - - - -
11.10.2019 00:00:00 - - - - - - - - -
10.10.2019 23:00:00 - - - - - - - - -
10.10.2019 22:00:00 - - - - - - - - -
10.10.2019 21:00:00 - - - - - - - - -
10.10.2019 20:00:00 - - - - - - - - -
10.10.2019 19:00:00 - - - - - - - - -
10.10.2019 18:00:00 - - - - - - - - -
10.10.2019 17:00:00 - - - - - - - - -
10.10.2019 16:00:00 - - - - - - - - -
10.10.2019 15:00:00 - - - - - - - - -
10.10.2019 14:00:00 - - - - - - - - -
10.10.2019 13:00:00 - - - - - - - - -
10.10.2019 12:00:00 - - - - - - - - -
10.10.2019 11:00:00 - - - - - - - - -
10.10.2019 10:00:00 - - - - - - - - -
10.10.2019 09:00:00 - - - - - - - - -
10.10.2019 08:00:00 - - - - - - - - -
10.10.2019 07:00:00 - - - - - - - - -
10.10.2019 06:00:00 - - - - - - - - -
10.10.2019 05:00:00 - - - - - - - - -
10.10.2019 04:00:00 - - - - - - - - -
10.10.2019 03:00:00 - - - - - - - - -
10.10.2019 02:00:00 - - - - - - - - -
10.10.2019 01:00:00 - - - - - - - - -
10.10.2019 00:00:00 - - - - - - - - -
09.10.2019 23:00:00 - - - - - - - - -
09.10.2019 22:00:00 - - - - - - - - -
09.10.2019 21:00:00 - - - - - - - - -
09.10.2019 20:00:00 - - - - - - - - -

tt = temperature
td = dewpoint
ff = wind speed
fx = gusts
dd = wind direction
ppp = reduced air pressure
rr = precipitation

Next stations